Startpagina
METAR-TAF:

METAR-TAF

Vliegvelden :

Albert, Frankrijk

breedte: 49-58-21N, lengte: 002-41-29E, hoogte: 111 m

Actueel weer

Dit bericht is 41 minuten geleden gemaakt, om 07:00 UTC
Wind 3 kt uit het noordwesten
Temperatuur 7°C
Vochtigheid 93%
Druk 1009 hPa
Zicht 10 km of meer
Weinig wolken op 500 ft
Gebroken wolken op 4300 ft
Gebroken wolken op 5400 ft

METAR: LFAQ 240700Z AUTO 31003KT 9999 FEW005 BKN043 BKN054 07/06 Q1009 NOSIG

Tijdstip: 08:41 (07:41 UTC)

Verwachting

Dit bericht is 2 uur en het 41 minuten geleden gemaakt, om 05:00 UTC
Verwachting geldig van 24 om 06 UTC tot 24 om 15 UTC
Wind 8 kt uit het noordnoordwesten
Zicht 10 km of meer
Gebroken wolken op 3000 ft
Tijdelijke
van 24 om 10 UTC tot 24 om 15 UTC
Zicht: 3000 m
Gebroken wolken op 800 ft
Gebroken wolken op 1300 ft, Stapelwolken.
regenbuien

TAF: LFAQ 240500Z 2406/2415 34008KT 9999 BKN030 TEMPO 2410/2415 3000 SHRA BKN008 BKN013TCU

Waarnemingen en weersverwachtingen van meer dan 4000 vliegvelden (METAR en TAF).

De beschikbare stations zijn de gele en rode punten op de kaart.

Ga met uw muis naar het station om de naam te zien.

Klik dan om waarnemingen en weersverwachtingen te zien.

kaart wijzigen: klik op de groene knoppen met een zwart kruis om in te zoomen, op de groene knop met een streepje om uit te zoomen of op de groene pijlen voor aangrenzende kaarten.


METAR-TAF: